Gene Huffty — WDD9076 — position and weather

sailwx.info

Track history (hours):
 
Tides and Currents Weather Stations Pressure Air Temp Water Temp Dewpoint Dewpoint Depression Visibility Wind Speed Wind Dir Waves Ship Positions

Gene Huffty

Owner: Ingram Barge Company LLC, Nashville, TN. More information available from US FCC via Universal Licensing System and Coast Guard Vessel Documentation Center.

Last reported at 2017-Oct-19 22:00 UTC. Time now 2017-Oct-19 22:06 UTC.
Position N 30°05' W 093°17'.

Length 19 m; draft 3 m.

Type: Towing. MMSI: 367306470.

Date/timePositionNaut miles runAvg speedWind from/ knotsBaromVisibWave heightAir tempDewpointWater temp
2017-Oct-19 22:00N 30°05' W 093°17'0 0.0
2017-Oct-19 21:30N 30°05' W 093°17'0 0.0
2017-Oct-19 21:01N 30°05' W 093°17'0 0.0
2017-Oct-19 20:31N 30°05' W 093°17'0 0.0
2017-Oct-19 20:00N 30°05' W 093°17'0 0.0
2017-Oct-19 19:30N 30°05' W 093°17'0 0.0
2017-Oct-19 19:00N 30°05' W 093°17'0 0.0
2017-Oct-19 18:30N 30°05' W 093°17'0 0.0
2017-Oct-19 18:00N 30°05' W 093°17'0 0.0
2017-Oct-19 17:31N 30°05' W 093°17'0 0.0
2017-Oct-19 17:00N 30°05' W 093°17'0 0.0
2017-Oct-19 16:30N 30°05' W 093°17'0 0.0
2017-Oct-19 16:00N 30°05' W 093°17'0 0.0
2017-Oct-19 15:30N 30°05' W 093°17'0 0.0
2017-Oct-19 15:00N 30°05' W 093°17'0 0.0
2017-Oct-19 14:30N 30°05' W 093°17'0 0.0
2017-Oct-19 14:00N 30°05' W 093°17'0 0.0
2017-Oct-19 13:30N 30°05' W 093°17'0 0.6
2017-Oct-19 13:00N 30°04' W 093°16'1 2.4
2017-Oct-19 12:30N 30°03' W 093°16'1 1.5
2017-Oct-19 12:00N 30°03' W 093°16'0 0.1
2017-Oct-19 11:30N 30°03' W 093°16'0 0.1
2017-Oct-19 11:00N 30°03' W 093°16'0 0.7
2017-Oct-19 10:31N 30°02' W 093°15'1 2.1
2017-Oct-19 10:00N 30°02' W 093°14'2 3.0
2017-Oct-19 09:30N 30°00' W 093°14'2 3.2
2017-Oct-19 09:00N 29°59' W 093°12'0 0.9
2017-Oct-19 08:30N 29°59' W 093°12'0 0.0
2017-Oct-19 08:00N 29°59' W 093°12'0 0.0
2017-Oct-19 07:30N 29°59' W 093°12'0 0.0
2017-Oct-19 07:00N 29°59' W 093°12'0 0.0
2017-Oct-19 06:31N 29°59' W 093°12'0 0.0
2017-Oct-19 06:00N 29°59' W 093°12'0 0.0
2017-Oct-19 05:30N 29°59' W 093°12'0 0.0
2017-Oct-19 05:00N 29°59' W 093°12'0 0.0
2017-Oct-19 04:30N 29°59' W 093°12'0 0.0
2017-Oct-19 04:00N 29°59' W 093°12'0 0.0
2017-Oct-19 03:30N 29°59' W 093°12'0 0.0
2017-Oct-19 03:00N 29°59' W 093°12'0 0.0
2017-Oct-19 02:30N 29°59' W 093°12'0 0.0
2017-Oct-19 02:00N 29°59' W 093°12'0 0.0
2017-Oct-19 01:30N 29°59' W 093°12'0 0.0
2017-Oct-19 01:00N 29°59' W 093°12'0 0.0
2017-Oct-19 00:30N 29°59' W 093°12'1 1.6
2017-Oct-19 00:00N 29°58' W 093°11'2 3.5
2017-Oct-18 23:30N 29°57' W 093°10'2 3.1
2017-Oct-18 23:00N 29°56' W 093°09'2 3.4
2017-Oct-18 22:30N 29°56' W 093°07'2 3.4
2017-Oct-18 22:00N 29°56' W 093°05'38 2.5
2017-Oct-18 06:58N 29°51' W 092°21'1 3.2
2017-Oct-18 06:30N 29°51' W 092°20'2 3.2
2017-Oct-18 06:00N 29°50' W 092°18'2 3.2
2017-Oct-18 05:30N 29°49' W 092°17'1 2.2
2017-Oct-18 05:00N 29°48' W 092°16'2 3.5
2017-Oct-18 04:30N 29°48' W 092°14'1 2.6
2017-Oct-18 04:00N 29°47' W 092°12'1 1.4
2017-Oct-18 03:30N 29°47' W 092°12'1 1.4
2017-Oct-18 03:00N 29°47' W 092°11'1 2.4
2017-Oct-18 02:30N 29°47' W 092°09'2 3.4
2017-Oct-18 02:00N 29°47' W 092°08'2 3.2
2017-Oct-18 01:30N 29°48' W 092°06'2 3.1
2017-Oct-18 01:00N 29°48' W 092°04'2 3.1
2017-Oct-18 00:30N 29°49' W 092°02'  
2017-Oct-13 11:00N 29°51' W 091°54'2 3.1
2017-Oct-13 10:30N 29°51' W 091°56'2 3.0
2017-Oct-13 10:00N 29°50' W 091°57'2 3.5
2017-Oct-13 09:30N 29°50' W 091°59'2 3.2
2017-Oct-13 09:00N 29°49' W 092°01'2 3.5
2017-Oct-13 08:30N 29°49' W 092°03'2 3.9
2017-Oct-13 08:00N 29°48' W 092°05'2 3.7
2017-Oct-13 07:30N 29°47' W 092°07'2 3.6
2017-Oct-13 07:00N 29°47' W 092°09'2 3.2
2017-Oct-13 06:30N 29°47' W 092°11'1 2.9
2017-Oct-13 06:00N 29°47' W 092°12'0 0.9
2017-Oct-13 05:30N 29°47' W 092°13'1 2.4
2017-Oct-13 05:00N 29°48' W 092°14'2 3.3
2017-Oct-13 04:30N 29°48' W 092°16'1 2.9
2017-Oct-13 04:00N 29°49' W 092°17'2 3.2
2017-Oct-13 03:30N 29°50' W 092°19'1 3.0
2017-Oct-13 03:00N 29°51' W 092°20'2 3.3
2017-Oct-13 02:18N 29°52' W 092°22'1 2.6
2017-Oct-13 01:51N 29°53' W 092°23'34 3.3
2017-Oct-12 15:43N 29°56' W 093°02'1 3.4
2017-Oct-12 15:30N 29°56' W 093°03'2 3.3
2017-Oct-12 15:00N 29°56' W 093°05'2 3.2
2017-Oct-12 14:30N 29°56' W 093°07'1 2.7
2017-Oct-12 14:00N 29°56' W 093°08'1 3.0
2017-Oct-12 13:30N 29°56' W 093°10'2 3.3
2017-Oct-12 13:00N 29°58' W 093°11'2 3.3
2017-Oct-12 12:30N 29°59' W 093°12'2 3.2
2017-Oct-12 12:00N 30°00' W 093°14'1 2.8
2017-Oct-12 11:30N 30°01' W 093°14'1 2.0
2017-Oct-12 11:00N 30°02' W 093°15'1 2.8
2017-Oct-12 10:30N 30°03' W 093°16'2 3.0
2017-Oct-12 10:00N 30°05' W 093°17'1 2.4
2017-Oct-12 09:30N 30°05' W 093°18'1 1.1
2017-Oct-12 09:00N 30°06' W 093°18'1 1.4
2017-Oct-12 08:30N 30°06' W 093°19'0 0.2
2017-Oct-12 08:00N 30°06' W 093°19'0 0.0
2017-Oct-12 07:30N 30°06' W 093°19'0 0.0
2017-Oct-12 07:00N 30°06' W 093°19'0 0.0
2017-Oct-12 06:30N 30°06' W 093°19'0 0.0
2017-Oct-12 06:00N 30°06' W 093°19'1 1.0
2017-Oct-12 05:30N 30°06' W 093°19'2 3.2
2017-Oct-12 05:00N 30°05' W 093°20'1 2.8
2017-Oct-12 04:30N 30°04' W 093°22'2 3.4
2017-Oct-12 04:00N 30°04' W 093°24'1 2.9
2017-Oct-12 03:30N 30°04' W 093°25'2 3.1
2017-Oct-12 03:00N 30°04' W 093°27'1 2.8
2017-Oct-12 02:30N 30°04' W 093°29'2 3.6
2017-Oct-12 02:00N 30°04' W 093°31'2 3.1
2017-Oct-12 01:30N 30°04' W 093°32'2 3.5
2017-Oct-12 01:00N 30°04' W 093°34'2 3.6
2017-Oct-12 00:30N 30°04' W 093°37'2 3.1
2017-Oct-12 00:00N 30°04' W 093°38'2 3.2
2017-Oct-11 23:30N 30°03' W 093°40'71 3.0
2017-Oct-10 23:59N 29°32' W 094°54'2 5.0
2017-Oct-10 23:30N 29°34' W 094°56'2 4.7
2017-Oct-10 23:00N 29°36' W 094°57'2 4.9
2017-Oct-10 22:30N 29°39' W 094°58'3 5.3
2017-Oct-10 22:00N 29°41' W 094°59'3 5.0
2017-Oct-10 21:29N 29°43' W 095°01'2 4.4
2017-Oct-10 20:59N 29°44' W 095°03'3 1.2
2017-Oct-10 18:32N 29°46' W 095°06'0 0.7
2017-Oct-10 18:30N 29°46' W 095°06'0 0.5
2017-Oct-10 17:35N 29°46' W 095°06'0 2.7
2017-Oct-10 17:30N 29°46' W 095°05'3 3.5
2017-Oct-10 16:40N 29°44' W 095°08'1 4.5
2017-Oct-10 16:30N 29°44' W 095°09'2 1.5
2017-Oct-10 15:28N 29°45' W 095°10'2 4.0
2017-Oct-10 14:59N 29°44' W 095°08'3 0.5
2017-Oct-10 09:48N 29°46' W 095°06'2 2.4
2017-Oct-10 09:05N 29°45' W 095°04'0 3.3
2017-Oct-10 09:00N 29°45' W 095°04'2 3.3
2017-Oct-10 08:30N 29°44' W 095°03'2 3.2
2017-Oct-10 08:00N 29°43' W 095°01'2 3.1
2017-Oct-10 07:30N 29°42' W 095°00'2 3.7
2017-Oct-10 07:00N 29°41' W 094°59'2 4.0
2017-Oct-10 06:26N 29°38' W 094°58'2 4.1
2017-Oct-10 06:00N 29°37' W 094°57'2 4.0
2017-Oct-10 05:30N 29°35' W 094°56'2 4.2
2017-Oct-10 05:00N 29°33' W 094°55'2 4.7
2017-Oct-10 04:29N 29°31' W 094°53'  
Track history (hours):
 
Tides and Currents Weather Stations Pressure Air Temp Water Temp Dewpoint Dewpoint Depression Visibility Wind Speed Wind Dir Waves Ship Positions

Gene Huffty

Owner: Ingram Barge Company LLC, Nashville, TN. More information available from US FCC via Universal Licensing System and Coast Guard Vessel Documentation Center.

Last reported at 2017-Oct-19 22:00 UTC. Time now 2017-Oct-19 22:06 UTC.
Position N 30°05' W 093°17'.

Length 19 m; draft 3 m.

Type: Towing. MMSI: 367306470.

Date/timePositionNaut miles runAvg speedWind from/ knotsBaromVisibWave heightAir tempDewpointWater temp
2017-Oct-19 22:00N 30°05' W 093°17'0 0.0
2017-Oct-19 21:30N 30°05' W 093°17'0 0.0
2017-Oct-19 21:01N 30°05' W 093°17'0 0.0
2017-Oct-19 20:31N 30°05' W 093°17'0 0.0
2017-Oct-19 20:00N 30°05' W 093°17'0 0.0
2017-Oct-19 19:30N 30°05' W 093°17'0 0.0
2017-Oct-19 19:00N 30°05' W 093°17'0 0.0
2017-Oct-19 18:30N 30°05' W 093°17'0 0.0
2017-Oct-19 18:00N 30°05' W 093°17'0 0.0
2017-Oct-19 17:31N 30°05' W 093°17'0 0.0
2017-Oct-19 17:00N 30°05' W 093°17'0 0.0
2017-Oct-19 16:30N 30°05' W 093°17'0 0.0
2017-Oct-19 16:00N 30°05' W 093°17'0 0.0
2017-Oct-19 15:30N 30°05' W 093°17'0 0.0
2017-Oct-19 15:00N 30°05' W 093°17'0 0.0
2017-Oct-19 14:30N 30°05' W 093°17'0 0.0
2017-Oct-19 14:00N 30°05' W 093°17'0 0.0
2017-Oct-19 13:30N 30°05' W 093°17'0 0.6
2017-Oct-19 13:00N 30°04' W 093°16'1 2.4
2017-Oct-19 12:30N 30°03' W 093°16'1 1.5
2017-Oct-19 12:00N 30°03' W 093°16'0 0.1
2017-Oct-19 11:30N 30°03' W 093°16'0 0.1
2017-Oct-19 11:00N 30°03' W 093°16'0 0.7
2017-Oct-19 10:31N 30°02' W 093°15'1 2.1
2017-Oct-19 10:00N 30°02' W 093°14'2 3.0
2017-Oct-19 09:30N 30°00' W 093°14'2 3.2
2017-Oct-19 09:00N 29°59' W 093°12'0 0.9
2017-Oct-19 08:30N 29°59' W 093°12'0 0.0
2017-Oct-19 08:00N 29°59' W 093°12'0 0.0
2017-Oct-19 07:30N 29°59' W 093°12'0 0.0
2017-Oct-19 07:00N 29°59' W 093°12'0 0.0
2017-Oct-19 06:31N 29°59' W 093°12'0 0.0
2017-Oct-19 06:00N 29°59' W 093°12'0 0.0
2017-Oct-19 05:30N 29°59' W 093°12'0 0.0
2017-Oct-19 05:00N 29°59' W 093°12'0 0.0
2017-Oct-19 04:30N 29°59' W 093°12'0 0.0
2017-Oct-19 04:00N 29°59' W 093°12'0 0.0
2017-Oct-19 03:30N 29°59' W 093°12'0 0.0
2017-Oct-19 03:00N 29°59' W 093°12'0 0.0
2017-Oct-19 02:30N 29°59' W 093°12'0 0.0
2017-Oct-19 02:00N 29°59' W 093°12'0 0.0
2017-Oct-19 01:30N 29°59' W 093°12'0 0.0
2017-Oct-19 01:00N 29°59' W 093°12'0 0.0
2017-Oct-19 00:30N 29°59' W 093°12'1 1.6
2017-Oct-19 00:00N 29°58' W 093°11'2 3.5
2017-Oct-18 23:30N 29°57' W 093°10'2 3.1
2017-Oct-18 23:00N 29°56' W 093°09'2 3.4
2017-Oct-18 22:30N 29°56' W 093°07'2 3.4
2017-Oct-18 22:00N 29°56' W 093°05'38 2.5
2017-Oct-18 06:58N 29°51' W 092°21'1 3.2
2017-Oct-18 06:30N 29°51' W 092°20'2 3.2
2017-Oct-18 06:00N 29°50' W 092°18'2 3.2
2017-Oct-18 05:30N 29°49' W 092°17'1 2.2
2017-Oct-18 05:00N 29°48' W 092°16'2 3.5
2017-Oct-18 04:30N 29°48' W 092°14'1 2.6
2017-Oct-18 04:00N 29°47' W 092°12'1 1.4
2017-Oct-18 03:30N 29°47' W 092°12'1 1.4
2017-Oct-18 03:00N 29°47' W 092°11'1 2.4
2017-Oct-18 02:30N 29°47' W 092°09'2 3.4
2017-Oct-18 02:00N 29°47' W 092°08'2 3.2
2017-Oct-18 01:30N 29°48' W 092°06'2 3.1
2017-Oct-18 01:00N 29°48' W 092°04'2 3.1
2017-Oct-18 00:30N 29°49' W 092°02'  
2017-Oct-13 11:00N 29°51' W 091°54'2 3.1
2017-Oct-13 10:30N 29°51' W 091°56'2 3.0
2017-Oct-13 10:00N 29°50' W 091°57'2 3.5
2017-Oct-13 09:30N 29°50' W 091°59'2 3.2
2017-Oct-13 09:00N 29°49' W 092°01'2 3.5
2017-Oct-13 08:30N 29°49' W 092°03'2 3.9
2017-Oct-13 08:00N 29°48' W 092°05'2 3.7
2017-Oct-13 07:30N 29°47' W 092°07'2 3.6
2017-Oct-13 07:00N 29°47' W 092°09'2 3.2
2017-Oct-13 06:30N 29°47' W 092°11'1 2.9
2017-Oct-13 06:00N 29°47' W 092°12'0 0.9
2017-Oct-13 05:30N 29°47' W 092°13'1 2.4
2017-Oct-13 05:00N 29°48' W 092°14'2 3.3
2017-Oct-13 04:30N 29°48' W 092°16'1 2.9
2017-Oct-13 04:00N 29°49' W 092°17'2 3.2
2017-Oct-13 03:30N 29°50' W 092°19'1 3.0
2017-Oct-13 03:00N 29°51' W 092°20'2 3.3
2017-Oct-13 02:18N 29°52' W 092°22'1 2.6
2017-Oct-13 01:51N 29°53' W 092°23'34 3.3
2017-Oct-12 15:43N 29°56' W 093°02'1 3.4
2017-Oct-12 15:30N 29°56' W 093°03'2 3.3
2017-Oct-12 15:00N 29°56' W 093°05'2 3.2
2017-Oct-12 14:30N 29°56' W 093°07'1 2.7
2017-Oct-12 14:00N 29°56' W 093°08'1 3.0
2017-Oct-12 13:30N 29°56' W 093°10'2 3.3
2017-Oct-12 13:00N 29°58' W 093°11'2 3.3
2017-Oct-12 12:30N 29°59' W 093°12'2 3.2
2017-Oct-12 12:00N 30°00' W 093°14'1 2.8
2017-Oct-12 11:30N 30°01' W 093°14'1 2.0
2017-Oct-12 11:00N 30°02' W 093°15'1 2.8
2017-Oct-12 10:30N 30°03' W 093°16'2 3.0
2017-Oct-12 10:00N 30°05' W 093°17'1 2.4
2017-Oct-12 09:30N 30°05' W 093°18'1 1.1
2017-Oct-12 09:00N 30°06' W 093°18'1 1.4
2017-Oct-12 08:30N 30°06' W 093°19'0 0.2
2017-Oct-12 08:00N 30°06' W 093°19'0 0.0
2017-Oct-12 07:30N 30°06' W 093°19'0 0.0
2017-Oct-12 07:00N 30°06' W 093°19'0 0.0
2017-Oct-12 06:30N 30°06' W 093°19'0 0.0
2017-Oct-12 06:00N 30°06' W 093°19'1 1.0
2017-Oct-12 05:30N 30°06' W 093°19'2 3.2
2017-Oct-12 05:00N 30°05' W 093°20'1 2.8
2017-Oct-12 04:30N 30°04' W 093°22'2 3.4
2017-Oct-12 04:00N 30°04' W 093°24'1 2.9
2017-Oct-12 03:30N 30°04' W 093°25'2 3.1
2017-Oct-12 03:00N 30°04' W 093°27'1 2.8
2017-Oct-12 02:30N 30°04' W 093°29'2 3.6
2017-Oct-12 02:00N 30°04' W 093°31'2 3.1
2017-Oct-12 01:30N 30°04' W 093°32'2 3.5
2017-Oct-12 01:00N 30°04' W 093°34'2 3.6
2017-Oct-12 00:30N 30°04' W 093°37'2 3.1
2017-Oct-12 00:00N 30°04' W 093°38'2 3.2
2017-Oct-11 23:30N 30°03' W 093°40'71 3.0
2017-Oct-10 23:59N 29°32' W 094°54'2 5.0
2017-Oct-10 23:30N 29°34' W 094°56'2 4.7
2017-Oct-10 23:00N 29°36' W 094°57'2 4.9
2017-Oct-10 22:30N 29°39' W 094°58'3 5.3
2017-Oct-10 22:00N 29°41' W 094°59'3 5.0
2017-Oct-10 21:29N 29°43' W 095°01'2 4.4
2017-Oct-10 20:59N 29°44' W 095°03'3 1.2
2017-Oct-10 18:32N 29°46' W 095°06'0 0.7
2017-Oct-10 18:30N 29°46' W 095°06'0 0.5
2017-Oct-10 17:35N 29°46' W 095°06'0 2.7
2017-Oct-10 17:30N 29°46' W 095°05'3 3.5
2017-Oct-10 16:40N 29°44' W 095°08'1 4.5
2017-Oct-10 16:30N 29°44' W 095°09'2 1.5
2017-Oct-10 15:28N 29°45' W 095°10'2 4.0
2017-Oct-10 14:59N 29°44' W 095°08'3 0.5
2017-Oct-10 09:48N 29°46' W 095°06'2 2.4
2017-Oct-10 09:05N 29°45' W 095°04'0 3.3
2017-Oct-10 09:00N 29°45' W 095°04'2 3.3
2017-Oct-10 08:30N 29°44' W 095°03'2 3.2
2017-Oct-10 08:00N 29°43' W 095°01'2 3.1
2017-Oct-10 07:30N 29°42' W 095°00'2 3.7
2017-Oct-10 07:00N 29°41' W 094°59'2 4.0
2017-Oct-10 06:26N 29°38' W 094°58'2 4.1
2017-Oct-10 06:00N 29°37' W 094°57'2 4.0
2017-Oct-10 05:30N 29°35' W 094°56'2 4.2
2017-Oct-10 05:00N 29°33' W 094°55'2 4.7
2017-Oct-10 04:29N 29°31' W 094°53'  

Dump ship's entire track history